createdAt,value
2017-03-04T00:00:08.618Z,79.95
2017-03-04T00:00:48.997Z,80.04
2017-03-04T00:01:29.419Z,80.14
2017-03-04T00:02:09.843Z,80.14
2017-03-04T00:02:50.255Z,80.14
2017-03-04T00:03:30.694Z,79.85
2017-03-04T00:04:11.102Z,80.04
2017-03-04T00:04:52.184Z,80.24
2017-03-04T00:05:32.580Z,80.14
2017-03-04T00:06:12.981Z,80.14
2017-03-04T00:06:53.363Z,80.24
2017-03-04T00:07:33.767Z,79.95
2017-03-04T00:08:14.222Z,80.62
2017-03-04T00:08:54.666Z,79.95
2017-03-04T00:09:35.042Z,79.85
2017-03-04T00:10:15.437Z,79.76
2017-03-04T00:10:56.353Z,80.04
2017-03-04T00:11:36.730Z,79.85
2017-03-04T00:12:17.114Z,80.04
2017-03-04T00:12:57.514Z,80.04
2017-03-04T00:13:37.952Z,79.66
2017-03-04T00:14:18.355Z,79.95
2017-03-04T00:14:58.757Z,80.04
2017-03-04T00:15:39.152Z,79.95
2017-03-04T00:16:19.537Z,79.76
2017-03-04T00:16:59.923Z,79.95
2017-03-04T00:17:40.313Z,80.04
2017-03-04T00:18:20.718Z,80.04
2017-03-04T00:19:01.130Z,80.24
2017-03-04T00:19:41.515Z,79.95
2017-03-04T00:20:22.838Z,80.62
2017-03-04T00:21:03.222Z,79.95
2017-03-04T00:21:43.605Z,80.04
2017-03-04T00:23:41.205Z,80.04
2017-03-04T00:24:21.629Z,79.85
2017-03-04T00:25:02.064Z,80.04
2017-03-04T00:25:42.486Z,80.04
2017-03-04T00:26:22.904Z,80.43
2017-03-04T00:27:03.266Z,80.62
2017-03-04T00:27:43.662Z,80.43
2017-03-04T00:28:24.037Z,80.43
2017-03-04T00:29:04.423Z,80.24
2017-03-04T00:29:44.858Z,80.62
2017-03-04T00:30:25.344Z,80.24
2017-03-04T00:31:06.682Z,80.43
2017-03-04T00:31:47.068Z,80.8
2017-03-04T00:32:27.426Z,80.52
2017-03-04T00:33:07.796Z,80.8
2017-03-04T00:33:48.209Z,80.33
2017-03-04T00:34:28.686Z,80.71
2017-03-04T00:35:09.065Z,80.52
2017-03-04T00:37:26.770Z,80.43
2017-03-04T00:38:07.158Z,80.52
2017-03-04T00:38:47.567Z,80.8
2017-03-04T00:39:27.917Z,80.71
2017-03-04T00:40:08.291Z,80.62
2017-03-04T00:40:48.700Z,80.8
2017-03-04T00:41:29.120Z,80.62
2017-03-04T00:42:09.488Z,80.52
2017-03-04T00:42:49.900Z,80.52
2017-03-04T00:43:30.314Z,80.52
2017-03-04T00:44:10.745Z,80.33
2017-03-04T00:44:51.140Z,80.62
2017-03-04T00:45:31.505Z,80.52
2017-03-04T00:46:11.884Z,80.71
2017-03-04T00:46:52.286Z,79.85
2017-03-04T00:47:32.683Z,80.52
2017-03-04T00:48:13.094Z,80.43
2017-03-04T00:48:53.462Z,80.43
2017-03-04T00:49:33.894Z,80.38
2017-03-04T00:50:14.274Z,80.71
2017-03-04T00:50:54.649Z,80.8
2017-03-04T00:51:35.059Z,80.9
2017-03-04T00:52:15.432Z,80.43
2017-03-04T00:52:55.832Z,80.8
2017-03-04T00:53:36.229Z,81.09
2017-03-04T00:54:16.619Z,80.8
2017-03-04T00:54:57.006Z,80.8
2017-03-04T00:55:37.426Z,80.43
2017-03-04T00:56:17.819Z,80.71
2017-03-04T00:56:58.252Z,80.43
2017-03-04T00:58:55.758Z,80.52
2017-03-04T00:59:37.006Z,80.62
2017-03-04T01:00:17.433Z,80.52
2017-03-04T01:00:57.838Z,80.8
2017-03-04T01:01:38.257Z,80.71
2017-03-04T01:02:18.629Z,80.52
2017-03-04T01:02:59.079Z,80.43
2017-03-04T01:03:39.562Z,80.52
2017-03-04T01:04:20.017Z,80.24
2017-03-04T01:05:00.469Z,80.24
2017-03-04T01:05:40.841Z,80.9
2017-03-04T01:06:21.229Z,80.9
2017-03-04T01:07:01.592Z,80.9
2017-03-04T01:07:42.020Z,80.71
2017-03-04T01:08:22.455Z,80.8
2017-03-04T01:09:03.038Z,80.9
2017-03-04T01:09:43.381Z,80.9
2017-03-04T01:10:23.750Z,80.43
2017-03-04T01:11:04.176Z,81.27
2017-03-04T01:11:44.532Z,80.71
2017-03-04T01:12:24.893Z,80.24
2017-03-04T01:13:05.362Z,80.71
2017-03-04T01:13:45.743Z,81.37
2017-03-04T01:14:26.160Z,80.8
2017-03-04T01:15:06.591Z,80.8
2017-03-04T01:15:46.964Z,80.71
2017-03-04T01:16:27.403Z,80.67
2017-03-04T01:17:07.790Z,80.86
2017-03-04T01:17:48.194Z,81.05
2017-03-04T01:18:28.584Z,81.18
2017-03-04T01:19:08.947Z,81.09
2017-03-04T01:19:49.312Z,80.8
2017-03-04T01:20:29.686Z,81.18
2017-03-04T01:21:10.132Z,80.9
2017-03-04T01:21:50.489Z,80.71
2017-03-04T01:23:37.894Z,81.37
2017-03-04T01:24:18.315Z,81.56
2017-03-04T01:24:58.745Z,80.8
2017-03-04T01:25:39.176Z,81.18
2017-03-04T01:26:19.589Z,80.71
2017-03-04T01:27:00.008Z,80.99
2017-03-04T01:27:40.436Z,81.09
2017-03-04T01:28:20.860Z,81.66
2017-03-04T01:29:01.273Z,81.09
2017-03-04T01:29:41.669Z,81.37
2017-03-04T01:30:23.610Z,81.27
2017-03-04T01:31:04.038Z,80.9
2017-03-04T01:31:44.459Z,80.9
2017-03-04T01:32:24.889Z,81.14
2017-03-04T01:33:05.312Z,81.09
2017-03-04T01:33:45.745Z,81.18
2017-03-04T01:34:26.179Z,81.27
2017-03-04T01:35:06.605Z,81.27
2017-03-04T01:35:47.024Z,81.18
2017-03-04T01:36:27.447Z,81.27
2017-03-04T01:37:07.845Z,81.56
2017-03-04T01:37:48.278Z,80.86
2017-03-04T01:38:28.701Z,80.86
2017-03-04T01:39:09.143Z,80.76
2017-03-04T01:39:49.586Z,81.52
2017-03-04T01:40:30.609Z,81.43
2017-03-04T01:41:11.066Z,80.67
2017-03-04T01:41:51.488Z,81.05
2017-03-04T01:42:31.928Z,81.14
2017-03-04T01:43:12.365Z,80.95
2017-03-04T01:43:53.795Z,81.14
2017-03-04T01:44:34.231Z,80.86
2017-03-04T01:45:14.682Z,80.76
2017-03-04T01:45:55.131Z,80.76
2017-03-04T01:46:35.560Z,80.86
2017-03-04T01:47:16.011Z,80.86
2017-03-04T01:47:56.424Z,81.14
2017-03-04T01:48:36.826Z,80.86
2017-03-04T01:49:17.217Z,80.67
2017-03-04T01:51:29.847Z,80.48
2017-03-04T01:52:10.840Z,80.38
2017-03-04T01:52:51.262Z,80.44
2017-03-04T01:53:31.709Z,80.06
2017-03-04T01:54:12.131Z,80.06
2017-03-04T01:54:53.336Z,79.77
2017-03-04T01:55:33.728Z,79.68
2017-03-04T01:56:14.154Z,79.77
2017-03-04T01:56:54.588Z,79.39
2017-03-04T01:57:35.004Z,79.49
2017-03-04T01:58:15.400Z,79.02
2017-03-04T01:58:55.797Z,79.3
2017-03-04T01:59:36.215Z,79.02
2017-03-04T02:00:16.625Z,78.64
2017-03-04T02:00:57.729Z,79.58
2017-03-04T02:01:38.159Z,79.58
2017-03-04T02:02:18.596Z,79.77
2017-03-04T02:02:59.044Z,79.3
2017-03-04T02:03:39.486Z,78.54
2017-03-04T02:04:20.853Z,79.02
2017-03-04T02:05:01.266Z,79.21
2017-03-04T02:05:41.701Z,79.34
2017-03-04T02:06:22.140Z,79.06
2017-03-04T02:07:02.570Z,78.96
2017-03-04T02:07:42.967Z,79.82
2017-03-04T02:08:23.360Z,79.58
2017-03-04T02:09:03.764Z,79.3
2017-03-04T02:09:44.167Z,79.39
2017-03-04T02:10:24.586Z,79.02
2017-03-04T02:11:05.008Z,79.3
2017-03-04T02:11:45.444Z,79.82
2017-03-04T02:12:26.563Z,78.92
2017-03-04T02:13:06.983Z,78.73
2017-03-04T02:13:47.398Z,79.11
2017-03-04T02:14:28.639Z,78.73
2017-03-04T02:15:09.036Z,79.11
2017-03-04T02:15:49.459Z,79.02
2017-03-04T02:16:29.876Z,79.49
2017-03-04T02:17:10.280Z,79.3
2017-03-04T02:17:50.686Z,79.3
2017-03-04T02:18:31.048Z,79.21
2017-03-04T02:19:11.427Z,78.92
2017-03-04T02:19:51.777Z,79.02
2017-03-04T02:20:32.178Z,79.21
2017-03-04T02:21:12.623Z,79.02
2017-03-04T02:21:53.044Z,79.87
2017-03-04T02:22:33.487Z,79.58
2017-03-04T02:23:14.770Z,79.49
2017-03-04T02:23:56.170Z,79.49
2017-03-04T02:24:36.602Z,79.58
2017-03-04T02:25:17.052Z,79.02
2017-03-04T02:25:57.528Z,79.58
2017-03-04T02:26:37.951Z,79.77
2017-03-04T02:27:18.365Z,79.49
2017-03-04T02:27:58.749Z,79.87
2017-03-04T02:28:39.191Z,79.49
2017-03-04T02:29:19.610Z,79.39
2017-03-04T02:30:00.035Z,78.73
2017-03-04T02:30:40.423Z,78.16
2017-03-04T02:32:32.932Z,78.73
2017-03-04T02:33:13.413Z,78.35
2017-03-04T02:33:53.798Z,79.49
2017-03-04T02:34:34.187Z,79.77
2017-03-04T02:35:14.577Z,79.11
2017-03-04T02:35:55.023Z,78.92
2017-03-04T02:36:35.383Z,79.3
2017-03-04T02:37:15.757Z,79.3
2017-03-04T02:37:56.160Z,78.73
2017-03-04T02:38:36.594Z,78.26
2017-03-04T02:39:17.052Z,78.16
2017-03-04T02:39:57.486Z,78.35
2017-03-04T02:40:37.866Z,77.69
2017-03-04T02:41:18.259Z,78.35
2017-03-04T02:41:58.651Z,78.26
2017-03-04T02:42:39.031Z,78.26
2017-03-04T02:43:19.392Z,78.16
2017-03-04T02:43:59.832Z,78.45
2017-03-04T02:44:40.208Z,77.69
2017-03-04T02:45:20.576Z,77.78
2017-03-04T02:46:00.972Z,76.65
2017-03-04T02:46:41.342Z,76.36
2017-03-04T02:47:21.785Z,76.84
2017-03-04T02:48:02.149Z,76.65
2017-03-04T02:48:42.520Z,77.12
2017-03-04T02:49:22.891Z,77.12
2017-03-04T02:50:03.310Z,77.4
2017-03-04T02:50:44.368Z,77.12
2017-03-04T02:51:24.787Z,77.22
2017-03-04T02:52:05.201Z,76.84
2017-03-04T02:52:45.625Z,76.74
2017-03-04T02:53:26.024Z,76.27
2017-03-04T02:54:06.397Z,75.32
2017-03-04T02:54:46.790Z,75.32
2017-03-04T02:56:39.283Z,76.27
2017-03-04T02:57:19.728Z,75.79
2017-03-04T02:58:00.154Z,76.27
2017-03-04T02:58:40.585Z,76.74
2017-03-04T02:59:21.015Z,76.27
2017-03-04T03:00:01.446Z,75.42
2017-03-04T03:00:41.862Z,74.95
2017-03-04T03:01:22.285Z,75.23
2017-03-04T03:02:02.696Z,75.42
2017-03-04T03:02:43.107Z,75.7
2017-03-04T03:05:00.865Z,75.51
2017-03-04T03:05:41.240Z,75.13
2017-03-04T03:06:21.681Z,74.56
2017-03-04T03:07:02.136Z,73.77
2017-03-04T03:07:42.541Z,72.73
2017-03-04T03:08:22.967Z,72.53
2017-03-04T03:09:03.354Z,71.31
2017-03-04T03:09:43.714Z,71.62
2017-03-04T03:10:24.128Z,70.78
2017-03-04T03:11:04.519Z,71.34
2017-03-04T03:11:44.934Z,71.72
2017-03-04T03:12:25.326Z,71.91
2017-03-04T03:13:05.738Z,72.29
2017-03-04T03:13:46.091Z,72
2017-03-04T03:14:26.473Z,71.72
2017-03-04T03:16:13.872Z,71.31
2017-03-04T03:16:54.284Z,72
2017-03-04T03:17:34.665Z,71.53
2017-03-04T03:18:15.064Z,71.72
2017-03-04T03:18:55.470Z,71.72
2017-03-04T03:19:35.852Z,71.78
2017-03-04T03:20:16.246Z,71.53
2017-03-04T03:20:56.628Z,71.59
2017-03-04T03:21:37.078Z,71.12
2017-03-04T03:22:17.431Z,71.31
2017-03-04T03:22:57.844Z,70.83
2017-03-04T03:23:38.234Z,71.12
2017-03-04T03:24:18.638Z,71.69
2017-03-04T03:24:59.044Z,72.38
2017-03-04T03:26:46.462Z,72.86
2017-03-04T03:27:26.858Z,72.44
2017-03-04T03:28:07.340Z,72.25
2017-03-04T03:28:47.760Z,72.25
2017-03-04T03:29:28.181Z,72.77
2017-03-04T03:30:08.552Z,72.44
2017-03-04T03:30:48.932Z,71.88
2017-03-04T03:31:29.380Z,71.5
2017-03-04T03:32:09.818Z,71.4
2017-03-04T03:32:50.190Z,70.93
2017-03-04T03:33:30.561Z,70.83
2017-03-04T03:34:10.963Z,71.31
2017-03-04T03:34:51.353Z,71.21
2017-03-04T03:35:31.744Z,71.69
2017-03-04T03:36:12.115Z,71.4
2017-03-04T03:36:52.535Z,71.78
2017-03-04T03:37:32.933Z,71.4
2017-03-04T03:38:13.328Z,70.64
2017-03-04T03:38:53.777Z,71.12
2017-03-04T03:39:34.286Z,70.93
2017-03-04T03:40:14.658Z,71.4
2017-03-04T03:40:55.078Z,70.36
2017-03-04T03:41:35.451Z,68.94
2017-03-04T03:42:15.809Z,68.37
2017-03-04T03:42:56.189Z,68.56
2017-03-04T03:43:36.555Z,67.14
2017-03-04T03:44:16.979Z,67.61
2017-03-04T03:44:57.335Z,67.61
2017-03-04T03:45:37.708Z,68.27
2017-03-04T03:46:18.083Z,68.94
2017-03-04T03:46:58.501Z,69.13
2017-03-04T03:47:38.853Z,69.03
2017-03-04T03:48:19.826Z,68.84
2017-03-04T03:49:00.215Z,68.94
2017-03-04T03:49:40.563Z,68.84
2017-03-04T03:50:20.976Z,68.18
2017-03-04T03:51:01.338Z,68.84
2017-03-04T03:51:41.749Z,68.46
2017-03-04T03:52:22.117Z,68.75
2017-03-04T03:53:02.488Z,68.46
2017-03-04T03:53:42.906Z,69.98
2017-03-04T03:54:23.321Z,69.22
2017-03-04T03:55:03.693Z,69.03
2017-03-04T03:55:44.123Z,69.79
2017-03-04T03:56:24.491Z,69.6
2017-03-04T03:57:04.853Z,69.7
2017-03-04T03:57:45.222Z,69.51
2017-03-04T03:58:25.616Z,69.79
2017-03-04T03:59:06.006Z,68.94
2017-03-04T03:59:46.370Z,68.94
2017-03-04T04:00:26.747Z,68.94
2017-03-04T04:01:07.182Z,68.75
2017-03-04T04:01:47.539Z,69.79
2017-03-04T04:02:27.926Z,69.22
2017-03-04T04:03:08.324Z,68.94
2017-03-04T04:03:48.692Z,69.22
2017-03-04T04:04:29.078Z,69.03
2017-03-04T04:05:09.514Z,69.22
2017-03-04T04:05:49.934Z,69.03
2017-03-04T04:06:30.325Z,68.65
2017-03-04T04:08:42.975Z,67.9
2017-03-04T04:09:23.414Z,67.99
2017-03-04T04:10:03.842Z,68.65
2017-03-04T04:10:44.294Z,68.65
2017-03-04T04:11:24.721Z,68.65
2017-03-04T04:12:05.859Z,68.65
2017-03-04T04:12:46.304Z,68.08
2017-03-04T04:13:26.749Z,67.43
2017-03-04T04:14:07.202Z,66.47
2017-03-04T04:14:47.622Z,66.28
2017-03-04T04:15:28.071Z,67.33
2017-03-04T04:16:08.504Z,66.67
2017-03-04T04:16:48.909Z,67.33
2017-03-04T04:17:29.897Z,67.43
2017-03-04T04:18:10.283Z,67.43
2017-03-04T04:18:50.673Z,67.14
2017-03-04T04:19:31.054Z,67.8
2017-03-04T04:20:11.451Z,67.24
2017-03-04T04:20:51.847Z,67.8
2017-03-04T04:21:32.222Z,67.8
2017-03-04T04:22:12.627Z,67.61
2017-03-04T04:22:53.045Z,67.8
2017-03-04T04:23:33.446Z,68.27
2017-03-04T04:24:13.818Z,68.75
2017-03-04T04:24:54.226Z,68.37
2017-03-04T04:25:34.644Z,68.18
2017-03-04T04:26:15.907Z,67.9
2017-03-04T04:26:56.342Z,67.8
2017-03-04T04:27:36.757Z,66.95
2017-03-04T04:28:17.163Z,67.61
2017-03-04T04:28:58.497Z,67.05
2017-03-04T04:29:38.891Z,66.09
2017-03-04T04:30:19.286Z,66.35
2017-03-04T04:30:59.666Z,65.69
2017-03-04T04:31:40.085Z,65.4
2017-03-04T04:32:20.473Z,64.64
2017-03-04T04:33:00.879Z,64.55
2017-03-04T04:33:41.309Z,64.55
2017-03-04T04:34:21.718Z,64.36
2017-03-04T04:35:02.174Z,64.36
2017-03-04T04:35:42.564Z,63.13
2017-03-04T04:36:22.957Z,61.9
2017-03-04T04:37:03.349Z,60.48
2017-03-04T04:37:43.735Z,58.68
2017-03-04T04:38:24.130Z,59.25
2017-03-04T04:40:41.847Z,59.16
2017-03-04T04:41:22.248Z,60.29
2017-03-04T04:42:02.656Z,59.53
2017-03-04T04:42:43.089Z,58.21
2017-03-04T04:43:23.538Z,59.72
2017-03-04T04:44:03.969Z,59.81
2017-03-04T04:44:44.395Z,59.06
2017-03-04T04:45:24.793Z,59.44
2017-03-04T04:46:05.208Z,59.16
2017-03-04T04:46:45.652Z,59.81
2017-03-04T04:47:26.084Z,59.25
2017-03-04T04:48:06.525Z,59.81
2017-03-04T04:48:46.948Z,59.72
2017-03-04T04:49:27.385Z,60.19
2017-03-04T04:50:07.813Z,59.63
2017-03-04T04:50:48.255Z,58.78
2017-03-04T04:51:28.714Z,59.53
2017-03-04T04:52:09.153Z,57.92
2017-03-04T04:52:49.582Z,58.87
2017-03-04T04:53:30.016Z,59.63
2017-03-04T04:54:10.450Z,59.75
2017-03-04T04:54:50.889Z,59.56
2017-03-04T04:55:31.309Z,60.41
2017-03-04T04:56:11.714Z,60.03
2017-03-04T04:56:52.159Z,60.22
2017-03-04T04:57:32.598Z,61.18
2017-03-04T04:58:13.033Z,61.36
2017-03-04T04:58:54.167Z,61.18
2017-03-04T04:59:34.602Z,61.93
2017-03-04T05:00:15.016Z,62.21
2017-03-04T05:00:55.439Z,61.99
2017-03-04T05:01:35.867Z,61.36
2017-03-04T05:02:16.298Z,61.15
2017-03-04T05:02:56.704Z,61.18
2017-03-04T05:03:37.095Z,61.18
2017-03-04T05:04:17.541Z,61.27
2017-03-04T05:04:57.960Z,61.46
2017-03-04T05:05:38.388Z,61.46
2017-03-04T05:06:18.818Z,62.21
2017-03-04T05:06:59.257Z,62.97
2017-03-04T05:07:39.695Z,62.59
2017-03-04T05:08:20.121Z,62.21
2017-03-04T05:09:00.526Z,63.23
2017-03-04T05:09:40.915Z,63.89
2017-03-04T05:10:21.304Z,63.32
2017-03-04T05:11:01.692Z,63.7
2017-03-04T05:11:42.107Z,63.51
2017-03-04T05:12:22.496Z,62.18
2017-03-04T05:13:02.872Z,61.99
2017-03-04T05:13:43.283Z,61.24
2017-03-04T05:14:23.636Z,60.38
2017-03-04T05:15:04.048Z,58.94
2017-03-04T05:15:44.463Z,59.25
2017-03-04T05:16:24.874Z,58.84
2017-03-04T05:17:05.239Z,58.28
2017-03-04T05:17:45.669Z,57.83
2017-03-04T05:18:26.083Z,57.07
2017-03-04T05:19:06.474Z,56.79
2017-03-04T05:19:46.867Z,56.7
2017-03-04T05:20:27.248Z,56.22
2017-03-04T05:21:07.662Z,55.65
2017-03-04T05:21:48.120Z,55.18
2017-03-04T05:22:28.552Z,55.84
2017-03-04T05:23:08.973Z,55.84
2017-03-04T05:23:49.403Z,56.32
2017-03-04T05:24:29.848Z,56.79
2017-03-04T05:25:10.238Z,56.22
2017-03-04T05:25:50.660Z,56.7
2017-03-04T05:26:31.104Z,57.07
2017-03-04T05:27:11.529Z,56.7
2017-03-04T05:27:51.988Z,57.07
2017-03-04T05:28:32.420Z,57.07
2017-03-04T05:29:12.849Z,57.83
2017-03-04T05:29:53.278Z,58.02
2017-03-04T05:30:33.713Z,57.26
2017-03-04T05:31:14.116Z,57.35
2017-03-04T05:31:54.547Z,57.26
2017-03-04T05:32:34.972Z,56.6
2017-03-04T05:33:15.387Z,56.79
2017-03-04T05:33:55.844Z,57.07
2017-03-04T05:34:36.267Z,56.13
2017-03-04T05:35:16.725Z,56.88
2017-03-04T07:36:51.111Z,78.49
2017-03-04T07:38:43.551Z,78.77
2017-03-04T07:39:23.988Z,78.58
2017-03-04T07:40:04.399Z,78.49
2017-03-04T07:40:44.817Z,78.77
2017-03-04T07:41:25.207Z,78.3
2017-03-04T07:42:05.627Z,78.3
2017-03-04T07:42:46.051Z,78.58
2017-03-04T07:43:26.469Z,78.62
2017-03-04T07:44:06.884Z,78.67
2017-03-04T07:44:47.321Z,78.72
2017-03-04T07:45:27.752Z,79
2017-03-04T07:46:08.194Z,78.91
2017-03-04T07:46:48.631Z,79.1
2017-03-04T07:47:29.053Z,79.47
2017-03-04T07:48:09.482Z,79.47
2017-03-04T07:48:50.138Z,78.91
2017-03-04T07:49:30.611Z,79.47
2017-03-04T07:50:11.049Z,79.85
2017-03-04T07:50:51.457Z,79.76
2017-03-04T07:51:31.886Z,79.85
2017-03-04T07:52:12.297Z,79.85
2017-03-04T07:52:52.705Z,79.76
2017-03-04T07:53:33.153Z,79.76
2017-03-04T07:54:13.566Z,80.04
2017-03-04T07:54:53.971Z,80.14
2017-03-04T07:55:34.408Z,80.04
2017-03-04T07:56:14.855Z,80.18
2017-03-04T07:56:55.310Z,80.37
2017-03-04T07:57:35.752Z,80.18
2017-03-04T07:58:16.176Z,80.18
2017-03-04T07:58:56.584Z,79.9
2017-03-04T07:59:36.971Z,79.71
2017-03-04T08:00:17.379Z,79.9
2017-03-04T08:00:57.785Z,79.8
2017-03-04T08:01:38.240Z,79.23
2017-03-04T08:02:18.672Z,79.42
2017-03-04T08:02:59.058Z,79.71
2017-03-04T08:03:39.463Z,79.71
2017-03-04T08:05:26.881Z,79.36
2017-03-04T08:06:07.308Z,78.7
2017-03-04T08:06:47.738Z,78.7
2017-03-04T08:07:28.185Z,78.61
2017-03-04T08:08:08.610Z,78.51
2017-03-04T08:08:49.042Z,77.94
2017-03-04T08:09:29.473Z,78.23
2017-03-04T08:10:09.899Z,78.42
2017-03-04T08:10:50.310Z,78.13
2017-03-04T08:11:30.744Z,77.84
2017-03-04T08:12:11.182Z,77.94
2017-03-04T08:12:51.586Z,77.75
2017-03-04T08:13:31.985Z,77.79
2017-03-04T08:14:12.365Z,77.31
2017-03-04T08:14:52.782Z,76.93
2017-03-04T08:15:33.221Z,76.46
2017-03-04T08:16:13.637Z,76.75
2017-03-04T08:16:54.078Z,76.18
2017-03-04T08:17:34.495Z,76.21
2017-03-04T08:18:14.934Z,75.93
2017-03-04T08:18:55.364Z,75.07
2017-03-04T08:19:35.794Z,75.36
2017-03-04T08:20:16.222Z,74.98
2017-03-04T08:20:56.615Z,74.6
2017-03-04T08:21:37.009Z,74.22
2017-03-04T08:22:17.437Z,73.84
2017-03-04T08:22:57.838Z,73.27
2017-03-04T08:23:39.088Z,72.79
2017-03-04T08:24:19.478Z,72.7
2017-03-04T08:24:59.905Z,72.6
2017-03-04T08:25:40.302Z,72.7
2017-03-04T08:27:52.972Z,71.78
2017-03-04T08:28:33.406Z,71.12
2017-03-04T08:29:13.846Z,70.36
2017-03-04T08:29:54.276Z,70.26
2017-03-04T08:30:34.728Z,70.17
2017-03-04T08:31:15.166Z,70.54
2017-03-04T08:31:55.620Z,69.82
2017-03-04T08:32:36.081Z,69.5
2017-03-04T08:33:16.515Z,69.79
2017-03-04T08:33:56.929Z,69.88
2017-03-04T08:34:37.379Z,69.88
2017-03-04T08:35:17.814Z,69.82
2017-03-04T08:35:58.262Z,69.35
2017-03-04T08:36:38.693Z,68.96
2017-03-04T08:37:19.146Z,68.59
2017-03-04T08:37:59.574Z,67.47
2017-03-04T08:38:40.022Z,66.18
2017-03-04T08:39:20.479Z,64.84
2017-03-04T08:40:00.919Z,63.07
2017-03-04T08:40:41.374Z,62.4
2017-03-04T08:41:21.833Z,61.35
2017-03-04T08:42:02.278Z,61.16
2017-03-04T08:42:42.712Z,60.97
2017-03-04T08:43:23.168Z,61.25
2017-03-04T08:44:03.593Z,61.73
2017-03-04T08:44:44.041Z,62.12
2017-03-04T08:45:24.481Z,60.97
2017-03-04T08:46:04.938Z,60.24
2017-03-04T08:46:45.398Z,58.91
2017-03-04T08:47:25.852Z,59
2017-03-04T08:48:06.314Z,58.43
2017-03-04T08:48:46.759Z,58.24
2017-03-04T08:49:27.192Z,58.43
2017-03-04T08:50:07.644Z,58.14
2017-03-04T08:50:48.074Z,57.95
2017-03-04T08:51:28.522Z,57.86
2017-03-04T08:52:08.965Z,57.86
2017-03-04T08:52:49.417Z,58.33
2017-03-04T08:53:29.869Z,58.69
2017-03-04T08:54:10.332Z,58.69
2017-03-04T08:54:50.793Z,59.54
2017-03-04T08:55:31.254Z,60.02
2017-03-04T08:56:11.706Z,59.83
2017-03-04T08:56:52.158Z,58.91
2017-03-04T08:57:32.592Z,58.78
2017-03-04T08:58:13.042Z,59.64
2017-03-04T08:58:53.497Z,59.7
2017-03-04T08:59:33.926Z,60.75
2017-03-04T09:00:14.407Z,61.13
2017-03-04T09:00:54.836Z,61.25
2017-03-04T09:01:35.275Z,61.16
2017-03-04T09:02:15.725Z,61.07
2017-03-04T09:02:56.190Z,61.04
2017-03-04T09:03:36.643Z,61.61
2017-03-04T09:04:17.096Z,61.8
2017-03-04T09:04:57.531Z,62.56
2017-03-04T09:05:37.971Z,62.18
2017-03-04T09:06:18.414Z,62.46
2017-03-04T09:06:58.857Z,62.37
2017-03-04T09:07:39.312Z,62.75
2017-03-04T09:08:19.740Z,63.04
2017-03-04T09:09:00.178Z,63.2
2017-03-04T09:09:40.600Z,63.39
2017-03-04T09:10:21.048Z,63.57
2017-03-04T09:11:01.505Z,63.96
2017-03-04T09:11:41.944Z,64.15
2017-03-04T09:12:22.398Z,64.62
2017-03-04T09:13:02.851Z,64.24
2017-03-04T09:13:43.294Z,63.76
2017-03-04T09:14:23.732Z,64.05
2017-03-04T09:15:04.165Z,64.43
2017-03-04T09:15:44.613Z,64.53
2017-03-04T09:16:25.061Z,65.19
2017-03-04T09:17:05.505Z,65.1
2017-03-04T09:17:45.960Z,65.29
2017-03-04T09:18:26.416Z,65.19
2017-03-04T09:19:06.865Z,65.03
2017-03-04T09:19:47.308Z,64.75
2017-03-04T09:20:27.724Z,64.24
2017-03-04T09:21:08.172Z,64.62
2017-03-04T09:21:48.615Z,64.53
2017-03-04T09:22:29.067Z,64.05
2017-03-04T09:23:09.518Z,64.34
2017-03-04T09:23:49.933Z,64.28
2017-03-04T09:24:30.368Z,63.89
2017-03-04T09:25:10.818Z,64.08
2017-03-04T09:25:51.262Z,64.08
2017-03-04T09:26:31.712Z,63.89
2017-03-04T09:27:12.165Z,63.6
2017-03-04T09:27:52.600Z,63.6
2017-03-04T09:28:33.014Z,62.56
2017-03-04T09:29:13.451Z,62.85
2017-03-04T09:29:53.904Z,62.46
2017-03-04T09:30:34.357Z,62.56
2017-03-04T09:31:14.813Z,62.46
2017-03-04T09:31:55.267Z,61.73
2017-03-04T09:32:35.697Z,61.07
2017-03-04T09:33:16.152Z,60.3
2017-03-04T09:33:56.600Z,59.76
2017-03-04T09:34:37.030Z,59.09
2017-03-04T09:35:17.467Z,58.07
2017-03-04T09:35:57.891Z,57.41
2017-03-04T09:36:38.327Z,57.12
2017-03-04T09:37:18.764Z,56.93
2017-03-04T09:37:59.212Z,57.6
2017-03-04T09:38:39.651Z,56.36
2017-03-04T09:39:20.089Z,55.79
2017-03-04T09:40:00.532Z,55.69
2017-03-04T09:40:40.957Z,55.6
2017-03-04T09:41:21.400Z,55.98
2017-03-04T09:42:01.844Z,57.03
2017-03-04T09:42:42.279Z,56.36
2017-03-04T09:43:22.720Z,56.36
2017-03-04T09:44:03.167Z,56.36
2017-03-04T09:44:43.603Z,55.41
2017-03-04T09:45:24.057Z,55.69
2017-03-04T09:46:04.547Z,55.69
2017-03-04T09:46:44.979Z,55.6
2017-03-04T09:47:25.432Z,56.33
2017-03-04T09:48:05.870Z,57.09
2017-03-04T09:48:46.309Z,57.38
2017-03-04T09:49:26.745Z,57.76
2017-03-04T09:50:07.177Z,57.95
2017-03-04T09:50:47.591Z,57.95
2017-03-04T09:51:27.990Z,57.67
2017-03-04T09:52:08.438Z,58.04
2017-03-04T09:52:48.859Z,58.14
2017-03-04T09:53:29.304Z,58.14
2017-03-04T09:54:09.746Z,58.04
2017-03-04T09:54:50.190Z,58.62
2017-03-04T09:55:30.629Z,58.04
2017-03-04T09:56:11.081Z,57.89
2017-03-04T09:56:51.521Z,57.79
2017-03-04T09:57:31.969Z,57.7
2017-03-04T09:58:12.412Z,57.7
2017-03-04T09:58:52.819Z,57.7
2017-03-04T09:59:33.234Z,57.6
2017-03-04T10:00:13.639Z,56.77
2017-03-04T10:00:54.141Z,56.58
2017-03-04T10:01:34.578Z,56.48
2017-03-04T10:02:15.006Z,55.72
2017-03-04T10:02:55.462Z,55.53
2017-03-04T10:03:35.918Z,55.62
2017-03-04T10:04:16.372Z,55.53
2017-03-04T10:04:56.808Z,54.67
2017-03-04T10:05:37.236Z,54.77
2017-03-04T10:06:17.682Z,54
2017-03-04T10:06:58.103Z,54.86
2017-03-04T10:07:38.545Z,54.57
2017-03-04T10:08:18.975Z,54.57
2017-03-04T10:08:59.397Z,54.57
2017-03-04T10:09:39.837Z,54
2017-03-04T10:10:20.275Z,53.62
2017-03-04T10:11:00.728Z,53.33
2017-03-04T10:11:41.187Z,53.33
2017-03-04T10:12:21.648Z,53.14
2017-03-04T10:13:02.083Z,52.67
2017-03-04T10:13:42.522Z,53.31
2017-03-04T10:14:22.946Z,53.72
2017-03-04T10:15:03.369Z,53.62
2017-03-04T10:15:43.821Z,53.33
2017-03-04T10:16:24.255Z,53.05
2017-03-04T10:17:04.694Z,53.14
2017-03-04T10:17:45.134Z,53.33
2017-03-04T10:18:25.560Z,52.76
2017-03-04T10:19:06.028Z,52.57
2017-03-04T10:19:46.478Z,52.95
2017-03-04T10:20:26.935Z,52.12
2017-03-04T10:21:07.403Z,51.54
2017-03-04T10:21:47.848Z,51.17
2017-03-04T10:22:28.275Z,51.17
2017-03-04T10:24:20.769Z,50.98
2017-03-04T10:25:01.196Z,51.17
2017-03-04T10:25:41.601Z,50.98
2017-03-04T10:26:22.011Z,50.78
2017-03-04T10:27:02.397Z,50.78
2017-03-04T10:27:42.794Z,51.17
2017-03-04T10:28:23.222Z,50.4
2017-03-04T10:29:03.665Z,50.12
2017-03-04T10:29:44.058Z,50.43
2017-03-04T10:30:24.454Z,50.88
2017-03-04T10:31:04.866Z,50.31
2017-03-04T10:31:45.278Z,49.73
2017-03-04T10:32:25.694Z,50.21
2017-03-04T10:33:06.152Z,49.83
2017-03-04T10:33:46.547Z,49.73
2017-03-04T10:34:26.957Z,49.93
2017-03-04T10:35:07.369Z,49.44
2017-03-04T10:35:47.778Z,49.44
2017-03-04T10:36:28.184Z,49.54
2017-03-04T10:37:08.586Z,50.49
2017-03-04T10:37:48.996Z,50.12
2017-03-04T10:38:29.421Z,50.21
2017-03-04T10:39:09.824Z,50.21
2017-03-04T10:39:50.232Z,50.21
2017-03-04T10:40:30.631Z,49.93
2017-03-04T10:41:11.043Z,50.21
2017-03-04T10:41:51.441Z,50.12
2017-03-04T10:42:31.861Z,50.31
2017-03-04T10:43:12.289Z,50.21
2017-03-04T10:43:52.721Z,49.83
2017-03-04T10:44:33.155Z,49.64
2017-03-04T10:45:13.570Z,50.02
2017-03-04T10:45:53.992Z,50.59
2017-03-04T10:46:34.391Z,50.59
2017-03-04T10:47:14.791Z,50.21
2017-03-04T10:47:55.209Z,50.49
2017-03-04T10:48:35.661Z,50.31
2017-03-04T10:49:16.081Z,50.31
2017-03-04T10:49:56.529Z,50.49
2017-03-04T10:50:37.140Z,50.59
2017-03-04T10:51:17.553Z,50.4
2017-03-04T10:51:57.992Z,50.69
2017-03-04T10:52:38.410Z,50.69
2017-03-04T10:53:19.116Z,50.02
2017-03-04T10:55:11.607Z,49.54
2017-03-04T10:55:52.029Z,49.66
2017-03-04T10:56:32.481Z,49.18
2017-03-04T10:57:13.110Z,48.8
2017-03-04T10:57:53.547Z,49.38
2017-03-04T10:58:33.968Z,49.47
2017-03-04T10:59:14.389Z,49.16
2017-03-04T10:59:54.810Z,49.54
2017-03-04T11:00:35.216Z,50.31
2017-03-04T11:01:15.612Z,50.12
2017-03-04T11:01:56.022Z,49.83
2017-03-04T11:02:36.427Z,50.31
2017-03-04T11:03:16.824Z,50.12
2017-03-04T11:03:57.362Z,49.93
2017-03-04T11:04:37.689Z,50.12
2017-03-04T11:05:18.203Z,50.31
2017-03-04T11:05:58.624Z,49.93
2017-03-04T11:06:39.062Z,50.31